Time;durP1;ratioP1;P1;durP2;ratioP2;P2;SDS_P1;SDS_P2;PMS_P1;PMS_P2;Temp;Humidity;BMP_temperature;BMP_pressure;BME280_temperature;BME280_humidity;BME280_pressure;Samples;Min_cycle;Max_cycle;Signal;HPM_P1;HPM_P2
2022/04/20 00:00:09;;;;;;;;;;;9.30;99.90;;;;;;5092338;28;20362;-61
2022/04/20 00:02:35;;;;;;;;;;;9.30;99.90;;;;;;5093447;28;19916;-60
2022/04/20 00:05:00;;;;;;;;;;;9.30;99.90;;;;;;5093666;28;20315;-60
2022/04/20 00:07:26;;;;;;;;;;;9.30;99.90;;;;;;5093319;28;20413;-60
2022/04/20 00:09:51;;;;;;;;;;;9.20;99.90;;;;;;5093450;28;19916;-60
2022/04/20 00:12:17;;;;;;;;;;;9.30;99.90;;;;;;5093488;28;19916;-60
2022/04/20 00:14:43;;;;;;;;;;;9.20;99.90;;;;;;5093059;28;19916;-60
2022/04/20 00:17:08;;;;;;;;;;;9.20;99.90;;;;;;5092851;28;19916;-60
2022/04/20 00:19:34;;;;;;;;;;;9.10;99.90;;;;;;5093250;28;19927;-61
2022/04/20 00:21:59;;;;;;;;;;;9.10;99.90;;;;;;5093373;28;19916;-61
2022/04/20 00:24:25;;;;;;;;;;;9.10;99.90;;;;;;5093190;28;20362;-61
2022/04/20 00:26:50;;;;;;;;;;;9.10;99.90;;;;;;5092935;28;19922;-61
2022/04/20 00:29:16;;;;;;;;;;;9.10;99.90;;;;;;5093149;28;19926;-61
2022/04/20 00:31:41;;;;;;;;;;;9.10;99.90;;;;;;5093067;28;19924;-61
2022/04/20 00:34:07;;;;;;;;;;;9.00;99.90;;;;;;5093419;28;19920;-62
2022/04/20 00:36:32;;;;;;;;;;;9.00;99.90;;;;;;5093003;28;20431;-61
2022/04/20 00:38:58;;;;;;;;;;;9.00;99.90;;;;;;5092957;28;19916;-62
2022/04/20 00:41:24;;;;;;;;;;;9.00;99.90;;;;;;5092909;28;19942;-61
2022/04/20 00:43:50;;;;;;;;;;;9.00;99.90;;;;;;5092767;28;20326;-61
2022/04/20 00:46:16;;;;;;;;;;;8.90;99.90;;;;;;5092792;28;19923;-62
2022/04/20 00:48:42;;;;;;;;;;;8.90;99.90;;;;;;5092412;28;19920;-62
2022/04/20 00:51:07;;;;;;;;;;;8.90;99.90;;;;;;5091240;28;20450;-61
2022/04/20 00:53:33;;;;;;;;;;;8.80;99.90;;;;;;5092799;28;19916;-61
2022/04/20 00:55:59;;;;;;;;;;;8.80;99.90;;;;;;5092611;28;19923;-61
2022/04/20 00:58:25;;;;;;;;;;;8.90;99.90;;;;;;5091565;28;20045;-61
2022/04/20 01:00:50;;;;;;;;;;;8.80;99.90;;;;;;5090476;28;19920;-61
2022/04/20 01:03:16;;;;;;;;;;;8.80;99.90;;;;;;5091352;28;19940;-62
2022/04/20 01:05:41;;;;;;;;;;;8.80;99.90;;;;;;5092702;28;20413;-62
2022/04/20 01:08:07;;;;;;;;;;;8.80;99.90;;;;;;5092612;28;19938;-62
2022/04/20 01:10:33;;;;;;;;;;;8.80;99.90;;;;;;5092420;28;20312;-61
2022/04/20 01:12:59;;;;;;;;;;;8.70;99.90;;;;;;5092508;28;20294;-61
2022/04/20 01:15:24;;;;;;;;;;;8.70;99.90;;;;;;5092268;28;19923;-61
2022/04/20 01:17:50;;;;;;;;;;;8.80;99.90;;;;;;5092966;28;19916;-61
2022/04/20 01:20:15;;;;;;;;;;;8.70;99.90;;;;;;5096668;28;19920;-61
2022/04/20 01:22:41;;;;;;;;;;;8.70;99.90;;;;;;5096662;28;19916;-62
2022/04/20 01:25:08;;;;;;;;;;;8.60;99.90;;;;;;5096792;28;19916;-61
2022/04/20 01:27:34;;;;;;;;;;;8.60;99.90;;;;;;5096397;28;19923;-61
2022/04/20 01:29:59;;;;;;;;;;;8.60;99.90;;;;;;5096071;28;19958;-61
2022/04/20 01:32:25;;;;;;;;;;;8.60;99.90;;;;;;5096410;28;19948;-62
2022/04/20 01:34:52;;;;;;;;;;;8.50;99.90;;;;;;5094953;28;19966;-62
2022/04/20 01:37:18;;;;;;;;;;;8.50;99.90;;;;;;5095973;28;19920;-61
2022/04/20 01:39:43;;;;;;;;;;;8.50;99.90;;;;;;5096190;28;19920;-61
2022/04/20 01:42:10;;;;;;;;;;;8.50;99.90;;;;;;5096376;28;19916;-61
2022/04/20 01:44:36;;;;;;;;;;;8.50;99.90;;;;;;5096338;28;20305;-61
2022/04/20 01:47:02;;;;;;;;;;;8.40;99.90;;;;;;5094992;28;20297;-61
2022/04/20 01:49:28;;;;;;;;;;;8.40;99.90;;;;;;5096276;28;20392;-61
2022/04/20 01:51:54;;;;;;;;;;;8.30;99.90;;;;;;5096003;28;19916;-62
2022/04/20 01:54:19;;;;;;;;;;;8.20;99.90;;;;;;5095945;28;19916;-61
2022/04/20 01:56:46;;;;;;;;;;;8.20;99.90;;;;;;5096083;28;19916;-61
2022/04/20 01:59:12;;;;;;;;;;;8.20;99.90;;;;;;5095889;28;19967;-61
2022/04/20 02:04:22;;;;;;;;;;;8.20;99.90;;;;;;5095878;28;20003;-61
2022/04/20 02:06:47;;;;;;;;;;;8.20;99.90;;;;;;5095514;28;20049;-61
2022/04/20 02:09:13;;;;;;;;;;;8.20;99.90;;;;;;5095614;28;20027;-62
2022/04/20 02:11:39;;;;;;;;;;;8.10;99.90;;;;;;5095316;28;19923;-61
2022/04/20 02:14:04;;;;;;;;;;;8.10;99.90;;;;;;5095629;28;20282;-61
2022/04/20 02:16:30;;;;;;;;;;;8.10;99.90;;;;;;5095546;28;19915;-62
2022/04/20 02:18:56;;;;;;;;;;;8.10;99.90;;;;;;5095452;28;20370;-61
2022/04/20 02:21:21;;;;;;;;;;;8.10;99.90;;;;;;5095296;28;19966;-61
2022/04/20 02:23:47;;;;;;;;;;;8.00;99.90;;;;;;5095199;28;19916;-61
2022/04/20 02:26:13;;;;;;;;;;;8.00;99.90;;;;;;5095467;28;19958;-61
2022/04/20 02:28:38;;;;;;;;;;;8.00;99.90;;;;;;5095586;28;20357;-61
2022/04/20 02:31:04;;;;;;;;;;;8.00;99.90;;;;;;5094128;28;19920;-61
2022/04/20 02:33:29;;;;;;;;;;;8.00;99.90;;;;;;5094566;28;20281;-61
2022/04/20 02:35:56;;;;;;;;;;;7.90;99.90;;;;;;5095456;28;19920;-61
2022/04/20 02:38:22;;;;;;;;;;;7.90;99.90;;;;;;5095395;28;19915;-61
2022/04/20 02:40:49;;;;;;;;;;;7.90;99.90;;;;;;5094872;28;20035;-61
2022/04/20 02:43:15;;;;;;;;;;;7.90;99.90;;;;;;5076848;28;19955;-61
2022/04/20 02:45:40;;;;;;;;;;;7.90;99.90;;;;;;5095043;28;19966;-62
2022/04/20 02:48:06;;;;;;;;;;;7.90;99.90;;;;;;5094773;28;19924;-61
2022/04/20 02:50:31;;;;;;;;;;;7.80;99.90;;;;;;5094720;28;20419;-62
2022/04/20 02:52:57;;;;;;;;;;;7.80;99.90;;;;;;5094717;28;19923;-61
2022/04/20 02:55:23;;;;;;;;;;;7.80;99.90;;;;;;5094583;28;20289;-61
2022/04/20 02:57:49;;;;;;;;;;;7.80;99.90;;;;;;5094470;28;19959;-62
2022/04/20 03:00:15;;;;;;;;;;;7.80;99.90;;;;;;5094753;28;19927;-61
2022/04/20 03:02:41;;;;;;;;;;;7.80;99.90;;;;;;5094830;28;19923;-62
2022/04/20 03:05:07;;;;;;;;;;;7.80;99.90;;;;;;5094764;28;19919;-62
2022/04/20 03:07:32;;;;;;;;;;;7.70;99.90;;;;;;5094651;28;19916;-61
2022/04/20 03:09:58;;;;;;;;;;;7.70;99.90;;;;;;5094598;28;19947;-61
2022/04/20 03:12:23;;;;;;;;;;;7.70;99.90;;;;;;5094215;28;19923;-62
2022/04/20 03:14:51;;;;;;;;;;;7.70;99.90;;;;;;5094399;28;19926;-61
2022/04/20 03:17:17;;;;;;;;;;;7.70;99.90;;;;;;5094543;28;20281;-62
2022/04/20 03:19:42;;;;;;;;;;;7.60;99.90;;;;;;5094145;28;20006;-61
2022/04/20 03:22:08;;;;;;;;;;;7.60;99.90;;;;;;5094374;28;19920;-61
2022/04/20 03:24:33;;;;;;;;;;;7.60;99.90;;;;;;5094475;28;19920;-62
2022/04/20 03:26:59;;;;;;;;;;;7.60;99.90;;;;;;5094150;28;19916;-61
2022/04/20 03:29:25;;;;;;;;;;;7.60;99.90;;;;;;5094160;28;19916;-62
2022/04/20 03:31:52;;;;;;;;;;;7.60;99.90;;;;;;5094072;28;19920;-61
2022/04/20 03:34:18;;;;;;;;;;;7.50;99.90;;;;;;5093778;28;19923;-61
2022/04/20 03:36:43;;;;;;;;;;;7.50;99.90;;;;;;5093909;28;19916;-62
2022/04/20 03:39:09;;;;;;;;;;;7.50;99.90;;;;;;5093672;28;19916;-61
2022/04/20 03:41:34;;;;;;;;;;;7.50;99.90;;;;;;5093197;28;19939;-61
2022/04/20 03:44:00;;;;;;;;;;;7.50;99.90;;;;;;5093901;28;19923;-61
2022/04/20 03:46:25;;;;;;;;;;;7.50;99.90;;;;;;5093557;28;20266;-61
2022/04/20 03:48:51;;;;;;;;;;;7.40;99.90;;;;;;5093339;28;19927;-61
2022/04/20 03:51:16;;;;;;;;;;;7.50;99.90;;;;;;5093579;28;19927;-61
2022/04/20 03:53:42;;;;;;;;;;;7.50;99.90;;;;;;5093355;28;19916;-61
2022/04/20 03:56:08;;;;;;;;;;;7.40;99.90;;;;;;5093621;28;19920;-61
2022/04/20 03:58:33;;;;;;;;;;;7.40;99.90;;;;;;5093466;28;19923;-61
2022/04/20 04:00:59;;;;;;;;;;;7.40;99.90;;;;;;5093581;28;20380;-61
2022/04/20 04:03:25;;;;;;;;;;;7.40;99.90;;;;;;5093548;28;20382;-60
2022/04/20 04:05:51;;;;;;;;;;;7.40;99.90;;;;;;5093226;28;19919;-61
2022/04/20 04:08:16;;;;;;;;;;;7.30;99.90;;;;;;5092974;28;19919;-61
2022/04/20 04:10:42;;;;;;;;;;;7.30;99.90;;;;;;5091827;28;20381;-61
2022/04/20 04:13:07;;;;;;;;;;;7.20;99.90;;;;;;5093306;28;20019;-61
2022/04/20 04:15:33;;;;;;;;;;;7.30;99.90;;;;;;5093240;28;20388;-61
2022/04/20 04:17:59;;;;;;;;;;;7.20;99.90;;;;;;5093304;28;19915;-61
2022/04/20 04:20:26;;;;;;;;;;;7.20;99.90;;;;;;5092916;28;19920;-62
2022/04/20 04:22:52;;;;;;;;;;;7.20;99.90;;;;;;5092823;28;19969;-61
2022/04/20 04:25:17;;;;;;;;;;;7.20;99.90;;;;;;5092931;28;19920;-61
2022/04/20 04:27:43;;;;;;;;;;;7.20;99.90;;;;;;5093211;28;20010;-61
2022/04/20 04:30:09;;;;;;;;;;;7.20;99.90;;;;;;5093092;28;19923;-61
2022/04/20 04:32:35;;;;;;;;;;;7.20;99.90;;;;;;5093137;28;19954;-61
2022/04/20 04:35:03;;;;;;;;;;;7.10;99.90;;;;;;5092814;28;19916;-61
2022/04/20 04:37:29;;;;;;;;;;;7.20;99.90;;;;;;5092822;28;19916;-61
2022/04/20 04:39:54;;;;;;;;;;;7.20;99.90;;;;;;5092462;28;19942;-61
2022/04/20 04:42:20;;;;;;;;;;;7.10;99.90;;;;;;5091443;28;20390;-61
2022/04/20 04:44:45;;;;;;;;;;;7.20;99.90;;;;;;5092908;28;19962;-61
2022/04/20 04:49:55;;;;;;;;;;;7.20;99.90;;;;;;5093116;28;19916;-61
2022/04/20 04:52:20;;;;;;;;;;;7.20;99.90;;;;;;5091520;28;19916;-61
2022/04/20 04:54:46;;;;;;;;;;;7.20;99.90;;;;;;5091454;28;20374;-61
2022/04/20 04:57:12;;;;;;;;;;;7.30;99.90;;;;;;5092538;28;20007;-61
2022/04/20 04:59:40;;;;;;;;;;;7.20;99.90;;;;;;5092333;28;20023;-61
2022/04/20 05:02:07;;;;;;;;;;;7.30;99.90;;;;;;5092402;28;19923;-61
2022/04/20 05:04:33;;;;;;;;;;;7.30;99.90;;;;;;5092441;28;19942;-62
2022/04/20 05:06:59;;;;;;;;;;;7.30;99.90;;;;;;5092606;28;19916;-62
2022/04/20 05:09:25;;;;;;;;;;;7.30;99.90;;;;;;5092473;28;19961;-62
2022/04/20 05:11:51;;;;;;;;;;;7.30;99.90;;;;;;5092107;28;19916;-62
2022/04/20 05:14:16;;;;;;;;;;;7.30;99.90;;;;;;5092318;28;19933;-61
2022/04/20 05:16:42;;;;;;;;;;;7.40;99.90;;;;;;5092153;28;20007;-61
2022/04/20 05:19:08;;;;;;;;;;;7.40;99.90;;;;;;5092090;28;19916;-62
2022/04/20 05:21:33;;;;;;;;;;;7.40;99.90;;;;;;5092505;28;20288;-61
2022/04/20 05:23:59;;;;;;;;;;;7.50;99.90;;;;;;5092207;28;20019;-61
2022/04/20 05:26:25;;;;;;;;;;;7.50;99.90;;;;;;5092186;28;19916;-61
2022/04/20 05:28:51;;;;;;;;;;;7.60;99.90;;;;;;5092515;28;19920;-61
2022/04/20 05:31:17;;;;;;;;;;;7.60;99.90;;;;;;5092411;28;19935;-61
2022/04/20 05:33:43;;;;;;;;;;;7.70;99.90;;;;;;5092076;28;19916;-62
2022/04/20 05:36:08;;;;;;;;;;;7.70;99.90;;;;;;5092194;28;19968;-61
2022/04/20 05:44:02;;;;;;;;;;;7.90;99.90;;;;;;5091955;28;20263;-61
2022/04/20 05:46:27;;;;;;;;;;;8.00;99.90;;;;;;5091942;28;19923;-62
2022/04/20 05:48:53;;;;;;;;;;;8.10;99.90;;;;;;5091831;28;19959;-62
2022/04/20 05:51:19;;;;;;;;;;;8.70;99.90;;;;;;5092077;28;20266;-62
2022/04/20 05:53:45;;;;;;;;;;;8.40;99.90;;;;;;5091912;28;19923;-61
2022/04/20 05:56:10;;;;;;;;;;;8.50;99.90;;;;;;5092022;28;19920;-61
2022/04/20 05:58:36;;;;;;;;;;;8.60;99.90;;;;;;5092032;28;19924;-61
2022/04/20 06:01:01;;;;;;;;;;;8.70;99.90;;;;;;5090711;28;19931;-62
2022/04/20 06:03:27;;;;;;;;;;;8.80;99.90;;;;;;5092158;28;19920;-61
2022/04/20 06:05:53;;;;;;;;;;;8.90;99.90;;;;;;5095507;28;19977;-61
2022/04/20 06:08:19;;;;;;;;;;;8.90;99.90;;;;;;5095476;28;19971;-61
2022/04/20 06:10:46;;;;;;;;;;;9.10;99.90;;;;;;5094030;28;19970;-61
2022/04/20 06:13:12;;;;;;;;;;;9.30;99.90;;;;;;5095085;28;19916;-62
2022/04/20 06:15:38;;;;;;;;;;;9.50;99.90;;;;;;5095501;28;20007;-62
2022/04/20 06:18:03;;;;;;;;;;;9.60;99.90;;;;;;5095284;28;19916;-62
2022/04/20 06:20:29;;;;;;;;;;;9.80;99.90;;;;;;5095191;28;20340;-62
2022/04/20 06:22:54;;;;;;;;;;;9.90;99.90;;;;;;5095222;28;20286;-62
2022/04/20 06:25:20;;;;;;;;;;;10.00;99.90;;;;;;5095187;28;19916;-62
2022/04/20 06:27:45;;;;;;;;;;;10.10;99.90;;;;;;5095003;28;20047;-61
2022/04/20 06:30:11;;;;;;;;;;;10.30;99.90;;;;;;5095045;28;20320;-62
2022/04/20 06:32:37;;;;;;;;;;;10.40;99.90;;;;;;5095252;28;19945;-61
2022/04/20 06:35:03;;;;;;;;;;;10.60;99.90;;;;;;5095066;28;20426;-61
2022/04/20 06:37:28;;;;;;;;;;;10.90;99.90;;;;;;5095183;28;19923;-61
2022/04/20 06:39:57;;;;;;;;;;;11.00;99.90;;;;;;5094726;28;20365;-62
2022/04/20 06:42:22;;;;;;;;;;;11.40;99.90;;;;;;5094737;28;19999;-61
2022/04/20 06:44:48;;;;;;;;;;;11.40;99.90;;;;;;5094706;28;20049;-62
2022/04/20 06:47:13;;;;;;;;;;;11.50;99.90;;;;;;5094800;28;19924;-62
2022/04/20 06:49:39;;;;;;;;;;;11.80;99.90;;;;;;5094614;28;19916;-61
2022/04/20 07:00:17;;;;;;;;;;;12.30;99.90;;;;;;5094329;28;19923;-61
2022/04/20 07:02:44;;;;;;;;;;;12.40;99.90;;;;;;5094389;28;19985;-61
2022/04/20 07:05:09;;;;;;;;;;;12.70;99.90;;;;;;5094276;28;19923;-61
2022/04/20 07:07:36;;;;;;;;;;;12.90;99.90;;;;;;5094094;28;19920;-61
2022/04/20 07:10:05;;;;;;;;;;;12.90;99.90;;;;;;5094437;28;20065;-61
2022/04/20 07:12:30;;;;;;;;;;;13.10;99.90;;;;;;5094210;28;20027;-61
2022/04/20 07:14:56;;;;;;;;;;;13.00;99.90;;;;;;5093804;28;19940;-61
2022/04/20 07:17:21;;;;;;;;;;;13.10;99.90;;;;;;5093353;28;19916;-61
2022/04/20 07:19:47;;;;;;;;;;;13.40;99.90;;;;;;5094105;28;19924;-61
2022/04/20 07:22:12;;;;;;;;;;;13.80;99.90;;;;;;5093890;28;20324;-61
2022/04/20 07:24:38;;;;;;;;;;;13.80;99.90;;;;;;5094121;28;19916;-61
2022/04/20 07:27:03;;;;;;;;;;;14.20;99.90;;;;;;5093860;28;20362;-60
2022/04/20 07:29:29;;;;;;;;;;;14.00;99.90;;;;;;5093870;28;20278;-61
2022/04/20 07:31:55;;;;;;;;;;;14.20;99.90;;;;;;5093810;28;19916;-60
2022/04/20 07:34:20;;;;;;;;;;;14.50;99.90;;;;;;5093678;28;19961;-62
2022/04/20 07:36:47;;;;;;;;;;;14.90;99.90;;;;;;5093490;28;19919;-62
2022/04/20 07:39:12;;;;;;;;;;;15.00;98.70;;;;;;5093651;28;19923;-63
2022/04/20 07:41:39;;;;;;;;;;;15.40;99.40;;;;;;5093546;28;19920;-63
2022/04/20 07:44:05;;;;;;;;;;;15.10;96.00;;;;;;5093743;28;19916;-63
2022/04/20 07:46:30;;;;;;;;;;;15.40;96.80;;;;;;5094026;28;19916;-64
2022/04/20 07:48:56;;;;;;;;;;;15.80;96.10;;;;;;5093288;28;20007;-64
2022/04/20 07:51:21;;;;;;;;;;;16.30;95.90;;;;;;5093230;28;20273;-63
2022/04/20 07:53:47;;;;;;;;;;;16.20;95.20;;;;;;5093334;28;20318;-62
2022/04/20 07:56:12;;;;;;;;;;;15.80;94.50;;;;;;5093549;28;20258;-62
2022/04/20 07:58:38;;;;;;;;;;;16.10;94.60;;;;;;5093439;28;19927;-62
2022/04/20 08:01:03;;;;;;;;;;;16.00;93.90;;;;;;5093306;28;19927;-63
2022/04/20 08:03:29;;;;;;;;;;;16.00;93.50;;;;;;5093168;28;19916;-63
2022/04/20 08:05:55;;;;;;;;;;;16.00;92.80;;;;;;5093239;28;19923;-61
2022/04/20 08:08:22;;;;;;;;;;;16.20;93.70;;;;;;5093273;28;19923;-62
2022/04/20 08:10:48;;;;;;;;;;;16.30;92.30;;;;;;5093146;28;19916;-61
2022/04/20 08:16:05;;;;;;;;;;;17.10;92.50;;;;;;5090753;28;19923;-62
2022/04/20 08:18:30;;;;;;;;;;;16.60;91.50;;;;;;5090631;28;19919;-62
2022/04/20 08:20:56;;;;;;;;;;;17.20;90.80;;;;;;5056387;28;19931;-63
2022/04/20 08:23:22;;;;;;;;;;;17.50;88.60;;;;;;5090830;28;19915;-62
2022/04/20 08:25:47;;;;;;;;;;;17.60;90.80;;;;;;5090622;28;19916;-63
2022/04/20 08:28:13;;;;;;;;;;;17.90;90.60;;;;;;5090435;28;19916;-62
2022/04/20 08:30:39;;;;;;;;;;;18.30;91.00;;;;;;5090594;28;20320;-62
2022/04/20 08:33:07;;;;;;;;;;;18.20;89.70;;;;;;5090301;28;20050;-62
2022/04/20 08:35:36;;;;;;;;;;;18.00;87.20;;;;;;5090388;28;20281;-63
2022/04/20 08:38:02;;;;;;;;;;;18.00;87.70;;;;;;5090416;28;19923;-62
2022/04/20 08:40:28;;;;;;;;;;;18.10;87.00;;;;;;5090229;28;19920;-62
2022/04/20 08:42:54;;;;;;;;;;;17.70;85.60;;;;;;5090202;28;19923;-62
2022/04/20 08:45:19;;;;;;;;;;;17.90;84.40;;;;;;5090153;28;19916;-62
2022/04/20 08:47:48;;;;;;;;;;;18.20;85.90;;;;;;5090062;28;20310;-62
2022/04/20 08:50:14;;;;;;;;;;;18.40;86.60;;;;;;5090404;28;19916;-62
2022/04/20 08:52:42;;;;;;;;;;;18.40;82.10;;;;;;5091126;28;20373;-62
2022/04/20 08:55:09;;;;;;;;;;;18.50;84.30;;;;;;5092369;28;19915;-62
2022/04/20 08:57:35;;;;;;;;;;;18.70;82.30;;;;;;5092309;28;19920;-63
2022/04/20 09:00:02;;;;;;;;;;;18.60;79.30;;;;;;5092036;28;19920;-62
2022/04/20 09:02:28;;;;;;;;;;;18.30;79.10;;;;;;5092206;28;19916;-62
2022/04/20 09:04:54;;;;;;;;;;;18.30;77.90;;;;;;5092355;28;19923;-63
2022/04/20 09:07:20;;;;;;;;;;;18.70;79.80;;;;;;5092285;28;19971;-62
2022/04/20 09:09:46;;;;;;;;;;;18.60;80.50;;;;;;5092237;28;19916;-62
2022/04/20 09:12:16;;;;;;;;;;;18.50;78.80;;;;;;5092196;28;19915;-62
2022/04/20 09:14:43;;;;;;;;;;;18.50;79.80;;;;;;5092031;28;19916;-63
2022/04/20 09:17:10;;;;;;;;;;;18.70;79.50;;;;;;5091202;28;19916;-62
2022/04/20 09:19:36;;;;;;;;;;;19.10;81.10;;;;;;5092072;28;19969;-63
2022/04/20 09:22:15;;;;;;;;;;;18.90;77.20;;;;;;5092123;28;19919;-62
2022/04/20 09:24:57;;;;;;;;;;;19.10;78.50;;;;;;5090438;28;19922;-62
2022/04/20 09:27:22;;;;;;;;;;;18.90;77.00;;;;;;5092028;28;19916;-63
2022/04/20 09:29:55;;;;;;;;;;;19.10;77.40;;;;;;5092169;28;19920;-62
2022/04/20 09:32:33;;;;;;;;;;;19.00;76.30;;;;;;5092316;28;19941;-62
2022/04/20 09:34:59;;;;;;;;;;;19.00;75.70;;;;;;5090631;28;19971;-63
2022/04/20 09:37:25;;;;;;;;;;;18.90;75.80;;;;;;5092016;28;19916;-62
2022/04/20 09:39:51;;;;;;;;;;;19.00;77.80;;;;;;5094015;28;19919;-62
2022/04/20 09:42:18;;;;;;;;;;;18.90;75.90;;;;;;5096001;28;19995;-62
2022/04/20 09:44:53;;;;;;;;;;;19.00;76.30;;;;;;5094547;28;19961;-62
2022/04/20 09:50:07;;;;;;;;;;;19.10;75.90;;;;;;5095019;28;19920;-61
2022/04/20 09:52:39;;;;;;;;;;;18.90;73.70;;;;;;5095875;28;19923;-60
2022/04/20 09:55:06;;;;;;;;;;;19.60;78.40;;;;;;5095655;28;19922;-61
2022/04/20 09:57:32;;;;;;;;;;;19.40;78.00;;;;;;5095498;28;20382;-61
2022/04/20 09:59:57;;;;;;;;;;;19.80;75.40;;;;;;5095424;28;19965;-61
2022/04/20 10:02:23;;;;;;;;;;;20.10;76.70;;;;;;5095394;28;19916;-60
2022/04/20 10:04:49;;;;;;;;;;;20.00;74.60;;;;;;5095742;28;19920;-60
2022/04/20 10:07:15;;;;;;;;;;;20.60;76.90;;;;;;5095510;28;19942;-60
2022/04/20 10:09:40;;;;;;;;;;;20.40;74.30;;;;;;5095502;28;19916;-60
2022/04/20 10:12:07;;;;;;;;;;;20.10;73.40;;;;;;5095337;28;19927;-60
2022/04/20 10:17:21;;;;;;;;;;;20.60;73.20;;;;;;5095117;28;19920;-60
2022/04/20 10:19:47;;;;;;;;;;;20.30;73.30;;;;;;5095125;28;19924;-59
2022/04/20 10:22:15;;;;;;;;;;;20.10;71.50;;;;;;5095373;28;19962;-60
2022/04/20 10:24:42;;;;;;;;;;;19.50;71.70;;;;;;5095124;28;19916;-58
2022/04/20 10:27:18;;;;;;;;;;;19.30;73.40;;;;;;5095323;28;19985;-59
2022/04/20 10:29:46;;;;;;;;;;;21.90;72.40;;;;;;5093985;28;19961;-59
2022/04/20 10:32:22;;;;;;;;;;;23.50;72.50;;;;;;5093352;28;20310;-58
2022/04/20 10:34:50;;;;;;;;;;;24.60;70.80;;;;;;5075718;28;19916;-60
2022/04/20 10:37:25;;;;;;;;;;;25.10;67.20;;;;;;5075069;28;20286;-59
2022/04/20 10:39:53;;;;;;;;;;;25.40;66.60;;;;;;5074912;28;20386;-59
2022/04/20 10:42:22;;;;;;;;;;;27.00;65.50;;;;;;5074805;28;19917;-59
2022/04/20 10:44:47;;;;;;;;;;;27.20;63.90;;;;;;5074852;28;19924;-59
2022/04/20 10:47:18;;;;;;;;;;;27.20;61.30;;;;;;5073620;28;19920;-59
2022/04/20 10:49:43;;;;;;;;;;;27.20;60.60;;;;;;5074626;28;19916;-59
2022/04/20 10:52:25;;;;;;;;;;;27.80;61.00;;;;;;5073850;28;19991;-59
2022/04/20 10:54:51;;;;;;;;;;;28.10;58.70;;;;;;5074540;28;19923;-59
2022/04/20 10:57:17;;;;;;;;;;;29.30;60.10;;;;;;5074806;28;20047;-59
2022/04/20 10:59:43;;;;;;;;;;;29.00;58.40;;;;;;5076648;28;20398;-59
2022/04/20 11:02:09;;;;;;;;;;;28.80;57.20;;;;;;5084329;28;20586;-61
2022/04/20 11:04:39;;;;;;;;;;;28.30;55.10;;;;;;5092448;28;19916;-59
2022/04/20 11:07:06;;;;;;;;;;;28.30;54.60;;;;;;5095523;28;20369;-59
2022/04/20 11:09:41;;;;;;;;;;;29.20;54.30;;;;;;5094344;28;19941;-59
2022/04/20 11:21:10;;;;;;;;;;;29.40;55.30;;;;;;5093915;28;19923;-59
2022/04/20 11:23:54;;;;;;;;;;;29.50;55.60;;;;;;5051637;28;19923;-58
2022/04/20 11:26:21;;;;;;;;;;;29.50;54.00;;;;;;5051251;28;19916;-59
2022/04/20 11:28:47;;;;;;;;;;;29.40;53.20;;;;;;5051271;28;20053;-59
2022/04/20 11:31:13;;;;;;;;;;;28.70;53.30;;;;;;5051463;28;20433;-58
2022/04/20 11:33:38;;;;;;;;;;;29.50;53.50;;;;;;5051594;28;19916;-59
2022/04/20 11:36:04;;;;;;;;;;;30.10;53.30;;;;;;5051793;28;20442;-59
2022/04/20 11:38:36;;;;;;;;;;;29.80;52.10;;;;;;5051922;28;19917;-59
2022/04/20 11:41:02;;;;;;;;;;;30.00;54.80;;;;;;5051427;28;19974;-59
2022/04/20 11:43:27;;;;;;;;;;;30.50;51.20;;;;;;5051459;28;19916;-59
2022/04/20 11:45:54;;;;;;;;;;;31.10;53.00;;;;;;5051744;28;20386;-59
2022/04/20 11:48:22;;;;;;;;;;;30.90;51.10;;;;;;5051423;28;19921;-59
2022/04/20 11:50:57;;;;;;;;;;;31.30;50.90;;;;;;5051483;28;19923;-58
2022/04/20 11:53:37;;;;;;;;;;;30.90;50.00;;;;;;5051392;28;19917;-58
2022/04/20 11:56:04;;;;;;;;;;;30.90;51.10;;;;;;5049940;28;19923;-58
2022/04/20 11:58:30;;;;;;;;;;;31.20;52.30;;;;;;5056149;28;20014;-59
2022/04/20 12:01:05;;;;;;;;;;;30.60;50.90;;;;;;5073454;28;19921;-58
2022/04/20 12:03:41;;;;;;;;;;;30.40;50.40;;;;;;5076487;28;19930;-59
2022/04/20 12:06:08;;;;;;;;;;;28.90;50.00;;;;;;5092907;28;19919;-58
2022/04/20 12:08:35;;;;;;;;;;;28.60;50.30;;;;;;5093008;28;20354;-58
2022/04/20 12:11:04;;;;;;;;;;;28.60;52.40;;;;;;5093225;28;20065;-58
2022/04/20 12:13:31;;;;;;;;;;;29.60;51.10;;;;;;5093088;28;20285;-58
2022/04/20 12:16:08;;;;;;;;;;;30.30;50.40;;;;;;5093074;28;19927;-60
2022/04/20 12:18:37;;;;;;;;;;;30.50;51.20;;;;;;5095843;28;19915;-58
2022/04/20 12:21:04;;;;;;;;;;;30.80;51.50;;;;;;5092645;28;20378;-61
2022/04/20 12:23:39;;;;;;;;;;;30.80;51.00;;;;;;5092317;28;20009;-60
2022/04/20 12:26:05;;;;;;;;;;;28.80;50.80;;;;;;5091228;28;19915;-59
2022/04/20 12:28:43;;;;;;;;;;;29.60;51.70;;;;;;5091605;28;19927;-59
2022/04/20 12:31:10;;;;;;;;;;;28.30;50.10;;;;;;5095193;28;20323;-60
2022/04/20 12:33:37;;;;;;;;;;;28.60;51.70;;;;;;5092557;28;19969;-59
2022/04/20 12:36:06;;;;;;;;;;;28.90;51.50;;;;;;5092350;28;20006;-59
2022/04/20 12:38:48;;;;;;;;;;;29.80;51.00;;;;;;5092742;28;20290;-60
2022/04/20 12:41:32;;;;;;;;;;;29.00;51.10;;;;;;5092366;28;19926;-59
2022/04/20 12:43:58;;;;;;;;;;;29.10;52.40;;;;;;5092129;28;19916;-60
2022/04/20 12:46:31;;;;;;;;;;;29.70;51.50;;;;;;5092154;28;20429;-60
2022/04/20 12:48:57;;;;;;;;;;;28.90;51.20;;;;;;5092120;28;20375;-61
2022/04/20 12:51:23;;;;;;;;;;;28.00;51.40;;;;;;5093072;28;20026;-60
2022/04/20 12:53:49;;;;;;;;;;;27.30;51.00;;;;;;5090637;28;19926;-59
2022/04/20 13:04:28;;;;;;;;;;;26.90;51.40;;;;;;5093387;28;19924;-60
2022/04/20 13:06:55;;;;;;;;;;;27.80;52.40;;;;;;5092026;28;20061;-59
2022/04/20 13:09:20;;;;;;;;;;;28.20;52.20;;;;;;5094970;28;19966;-59
2022/04/20 13:11:46;;;;;;;;;;;27.60;51.50;;;;;;5092153;28;19951;-59
2022/04/20 13:14:11;;;;;;;;;;;27.70;52.30;;;;;;5093359;28;19916;-58
2022/04/20 13:16:37;;;;;;;;;;;27.90;53.80;;;;;;5097121;28;19923;-59
2022/04/20 13:19:02;;;;;;;;;;;27.90;52.90;;;;;;5096554;28;19937;-60
2022/04/20 13:21:29;;;;;;;;;;;28.10;53.10;;;;;;5096479;28;19927;-60
2022/04/20 13:23:55;;;;;;;;;;;28.00;52.50;;;;;;5096361;28;20370;-59
2022/04/20 13:29:05;;;;;;;;;;;27.80;54.80;;;;;;5092794;28;19916;-59
2022/04/20 13:31:31;;;;;;;;;;;27.10;56.50;;;;;;5096655;28;19938;-59
2022/04/20 13:33:56;;;;;;;;;;;27.60;56.90;;;;;;5095577;28;19931;-59
2022/04/20 13:36:22;;;;;;;;;;;27.50;57.60;;;;;;5088192;28;19916;-59
2022/04/20 13:38:47;;;;;;;;;;;28.00;57.60;;;;;;5076285;28;19927;-59
2022/04/20 13:41:13;;;;;;;;;;;28.30;58.50;;;;;;5076254;28;19920;-60
2022/04/20 13:43:38;;;;;;;;;;;27.50;56.00;;;;;;5080099;28;20278;-60
2022/04/20 13:46:04;;;;;;;;;;;25.90;56.50;;;;;;5076451;28;19920;-60
2022/04/20 13:48:30;;;;;;;;;;;27.10;56.90;;;;;;5076015;28;19987;-61
2022/04/20 13:50:55;;;;;;;;;;;26.50;57.30;;;;;;5076900;28;19916;-59
2022/04/20 13:53:21;;;;;;;;;;;26.20;57.50;;;;;;5083815;28;19915;-59
2022/04/20 13:55:47;;;;;;;;;;;26.00;59.30;;;;;;5095341;28;20317;-60
2022/04/20 13:58:12;;;;;;;;;;;26.60;57.70;;;;;;5079144;28;19916;-60
2022/04/20 14:00:40;;;;;;;;;;;26.20;59.60;;;;;;5095894;28;19920;-59
2022/04/20 14:03:07;;;;;;;;;;;25.50;59.70;;;;;;5093495;28;20320;-58
2022/04/20 14:05:32;;;;;;;;;;;25.70;60.10;;;;;;5095927;28;20351;-59
2022/04/20 14:07:58;;;;;;;;;;;26.10;59.10;;;;;;5095780;28;19970;-59
2022/04/20 14:10:23;;;;;;;;;;;26.00;60.30;;;;;;5095502;28;19967;-60
2022/04/20 14:12:49;;;;;;;;;;;25.80;58.80;;;;;;5095229;28;19920;-59
2022/04/20 14:15:16;;;;;;;;;;;24.90;60.30;;;;;;5095564;28;19923;-59
2022/04/20 14:17:44;;;;;;;;;;;25.40;60.30;;;;;;5095998;28;19943;-59
2022/04/20 14:20:09;;;;;;;;;;;25.30;59.60;;;;;;5095655;28;20362;-60
2022/04/20 14:22:35;;;;;;;;;;;24.70;59.20;;;;;;5095970;28;19920;-59
2022/04/20 14:33:13;;;;;;;;;;;23.90;61.30;;;;;;5095626;28;19915;-59
2022/04/20 14:35:38;;;;;;;;;;;22.70;62.40;;;;;;5095566;28;19939;-59
2022/04/20 14:38:04;;;;;;;;;;;23.20;63.80;;;;;;5095787;28;20414;-58
2022/04/20 14:40:30;;;;;;;;;;;23.40;62.80;;;;;;5095207;28;19920;-59
2022/04/20 14:42:55;;;;;;;;;;;23.30;62.50;;;;;;5095062;28;19916;-59
2022/04/20 14:45:23;;;;;;;;;;;23.20;62.90;;;;;;5095210;28;20010;-59
2022/04/20 14:47:53;;;;;;;;;;;23.00;63.60;;;;;;5094983;28;19924;-59
2022/04/20 14:50:21;;;;;;;;;;;22.80;63.80;;;;;;5095301;28;19916;-60
2022/04/20 14:52:46;;;;;;;;;;;22.60;63.90;;;;;;5095157;28;20125;-59
2022/04/20 14:55:12;;;;;;;;;;;22.50;65.00;;;;;;5095145;28;19916;-58
2022/04/20 14:57:37;;;;;;;;;;;23.00;65.20;;;;;;5093679;28;19916;-59
2022/04/20 15:00:04;;;;;;;;;;;23.00;64.40;;;;;;5075692;28;20014;-60
2022/04/20 15:02:30;;;;;;;;;;;22.70;64.40;;;;;;5074723;28;19916;-59
2022/04/20 15:04:56;;;;;;;;;;;22.80;65.80;;;;;;5090723;28;19923;-59
2022/04/20 15:07:21;;;;;;;;;;;22.50;64.20;;;;;;5094793;28;19916;-59
2022/04/20 15:09:47;;;;;;;;;;;22.40;65.30;;;;;;5094580;28;19916;-59
2022/04/20 15:12:12;;;;;;;;;;;21.80;66.50;;;;;;5094778;28;19916;-59
2022/04/20 15:14:39;;;;;;;;;;;21.80;67.10;;;;;;5094468;28;19969;-59